createdAt,value
2019-05-23T00:02:51.396Z,14.17
2019-05-23T00:05:40.734Z,15.17
2019-05-23T00:08:30.053Z,14.93
2019-05-23T00:11:18.926Z,15.07
2019-05-23T00:14:20.579Z,15.00
2019-05-23T00:16:51.932Z,15.67
2019-05-23T00:19:21.814Z,15.83
2019-05-23T00:21:53.026Z,15.13
2019-05-23T00:24:23.992Z,14.00
2019-05-23T00:26:54.516Z,15.70
2019-05-23T00:29:25.845Z,15.20
2019-05-23T00:31:57.285Z,15.70
2019-05-23T00:34:29.304Z,15.63
2019-05-23T00:36:59.838Z,15.07
2019-05-23T00:39:31.297Z,15.13
2019-05-23T00:42:01.134Z,15.93
2019-05-23T00:44:31.902Z,14.53
2019-05-23T00:47:02.143Z,15.40
2019-05-23T00:49:32.033Z,15.93
2019-05-23T00:52:01.832Z,16.10
2019-05-23T00:54:31.860Z,16.50
2019-05-23T00:57:02.249Z,17.30
2019-05-23T00:59:32.982Z,17.83
2019-05-23T01:02:02.992Z,16.57
2019-05-23T01:04:34.260Z,16.37
2019-05-23T01:07:04.154Z,17.03
2019-05-23T01:09:35.297Z,16.03
2019-05-23T01:12:05.885Z,17.37
2019-05-23T01:14:36.182Z,17.50
2019-05-23T01:17:07.388Z,17.40
2019-05-23T01:19:37.253Z,16.93
2019-05-23T01:22:14.756Z,15.93
2019-05-23T01:24:48.498Z,17.87
2019-05-23T01:27:19.238Z,17.60
2019-05-23T01:29:50.320Z,17.93
2019-05-23T01:32:22.108Z,19.03
2019-05-23T01:34:52.918Z,19.30
2019-05-23T01:37:24.680Z,17.70
2019-05-23T01:39:55.487Z,18.53
2019-05-23T01:42:25.767Z,19.50
2019-05-23T01:44:55.629Z,17.83
2019-05-23T01:47:26.198Z,18.10
2019-05-23T01:49:56.749Z,19.07
2019-05-23T01:52:26.541Z,19.43
2019-05-23T01:54:56.802Z,18.83
2019-05-23T01:57:26.741Z,18.20
2019-05-23T02:00:08.941Z,17.50
2019-05-23T02:02:30.404Z,18.13
2019-05-23T02:05:00.538Z,18.30
2019-05-23T02:07:30.830Z,18.90
2019-05-23T02:10:00.837Z,17.70
2019-05-23T02:12:31.576Z,17.80
2019-05-23T02:15:03.472Z,17.17
2019-05-23T02:17:33.501Z,18.60
2019-05-23T02:20:04.247Z,17.60
2019-05-23T02:22:34.276Z,18.93
2019-05-23T02:25:08.011Z,19.27
2019-05-23T02:27:40.114Z,17.97
2019-05-23T02:30:32.114Z,18.23
2019-05-23T02:32:45.437Z,17.80
2019-05-23T02:35:15.701Z,18.97
2019-05-23T02:37:47.205Z,17.57
2019-05-23T02:40:22.342Z,19.17
2019-05-23T02:42:56.797Z,17.63
2019-05-23T02:45:45.970Z,18.40
2019-05-23T02:48:18.645Z,18.20
2019-05-23T02:50:55.157Z,18.40
2019-05-23T02:53:28.023Z,17.97
2019-05-23T02:56:01.538Z,17.40
2019-05-23T02:58:38.711Z,17.07
2019-05-23T03:01:18.563Z,17.40
2019-05-23T03:03:49.999Z,17.93
2019-05-23T03:06:22.081Z,17.03
2019-05-23T03:08:52.343Z,18.20
2019-05-23T03:11:32.721Z,17.63
2019-05-23T03:14:04.623Z,17.53
2019-05-23T03:16:38.434Z,17.67
2019-05-23T03:19:15.885Z,18.23
2019-05-23T03:21:48.117Z,18.10
2019-05-23T03:24:19.042Z,18.87
2019-05-23T03:27:01.433Z,18.10
2019-05-23T03:29:33.421Z,18.30
2019-05-23T03:32:05.834Z,18.27
2019-05-23T03:34:37.289Z,18.37
2019-05-23T03:37:09.885Z,17.77
2019-05-23T03:39:41.392Z,17.43
2019-05-23T03:42:12.584Z,17.50
2019-05-23T03:44:44.937Z,18.37
2019-05-23T03:47:16.411Z,18.73
2019-05-23T03:49:48.149Z,18.53
2019-05-23T03:52:19.113Z,17.63
2019-05-23T03:54:50.327Z,17.53
2019-05-23T03:57:25.311Z,18.77
2019-05-23T03:59:53.873Z,16.73
2019-05-23T04:02:25.385Z,18.53
2019-05-23T04:04:57.319Z,19.43
2019-05-23T04:07:29.060Z,17.57
2019-05-23T04:09:58.937Z,17.67
2019-05-23T04:12:29.091Z,17.60
2019-05-23T04:14:59.376Z,18.43
2019-05-23T04:17:29.439Z,17.77
2019-05-23T04:19:59.303Z,16.80
2019-05-23T04:22:29.947Z,16.87
2019-05-23T04:25:02.197Z,17.37
2019-05-23T04:27:31.490Z,16.73
2019-05-23T04:30:01.367Z,16.07
2019-05-23T04:32:32.069Z,16.93
2019-05-23T04:35:01.935Z,18.23
2019-05-23T04:37:32.290Z,15.27
2019-05-23T04:40:02.348Z,15.30
2019-05-23T04:42:32.718Z,14.87
2019-05-23T04:45:03.249Z,15.13
2019-05-23T04:47:33.283Z,15.43
2019-05-23T04:50:04.018Z,16.43
2019-05-23T04:52:33.989Z,15.20
2019-05-23T04:55:04.696Z,15.93
2019-05-23T04:57:34.499Z,15.63
2019-05-23T05:00:12.425Z,15.57
2019-05-23T05:02:43.253Z,15.20
2019-05-23T05:05:13.678Z,15.20
2019-05-23T05:07:44.100Z,14.83
2019-05-23T05:10:17.620Z,14.63
2019-05-23T05:12:47.780Z,12.57
2019-05-23T05:15:17.823Z,14.03
2019-05-23T05:17:48.275Z,12.73
2019-05-23T05:20:18.413Z,12.30
2019-05-23T05:22:48.357Z,13.57
2019-05-23T05:25:20.730Z,14.90
2019-05-23T05:27:50.884Z,15.10
2019-05-23T05:30:21.730Z,14.03
2019-05-23T05:32:51.536Z,14.17
2019-05-23T05:35:21.403Z,14.43
2019-05-23T05:37:51.208Z,12.83
2019-05-23T05:40:21.063Z,13.33
2019-05-23T05:42:51.655Z,14.70
2019-05-23T05:45:21.952Z,14.47
2019-05-23T05:47:51.765Z,13.83
2019-05-23T05:50:22.283Z,14.03
2019-05-23T05:52:52.100Z,14.17
2019-05-23T05:55:22.271Z,13.17
2019-05-23T05:57:52.226Z,13.77
2019-05-23T06:00:27.295Z,14.60
2019-05-23T06:03:04.405Z,13.53
2019-05-23T06:05:41.463Z,14.40
2019-05-23T06:08:12.719Z,15.83
2019-05-23T06:10:43.147Z,14.20
2019-05-23T06:13:13.032Z,14.17
2019-05-23T06:15:44.749Z,15.77
2019-05-23T06:18:14.539Z,14.00
2019-05-23T06:20:46.557Z,14.10
2019-05-23T06:23:17.551Z,14.43
2019-05-23T06:25:47.371Z,15.87
2019-05-23T06:28:18.884Z,13.50
2019-05-23T06:30:50.119Z,14.30
2019-05-23T06:33:23.615Z,15.20
2019-05-23T06:35:52.736Z,14.87
2019-05-23T06:38:23.074Z,15.13
2019-05-23T06:40:54.635Z,14.90
2019-05-23T06:43:25.008Z,14.37
2019-05-23T06:45:54.909Z,14.63
2019-05-23T06:48:25.208Z,15.80
2019-05-23T06:50:56.063Z,15.03
2019-05-23T06:53:25.848Z,14.23
2019-05-23T06:55:55.731Z,15.13
2019-05-23T06:58:26.076Z,14.30
2019-05-23T07:00:56.011Z,15.13
2019-05-23T07:03:41.876Z,14.47
2019-05-23T07:05:58.672Z,14.33
2019-05-23T07:08:30.256Z,13.87
2019-05-23T07:11:00.125Z,14.40
2019-05-23T07:13:31.561Z,15.47
2019-05-23T07:16:01.653Z,14.57
2019-05-23T07:18:31.535Z,14.50
2019-05-23T07:21:01.421Z,14.80
2019-05-23T07:23:31.293Z,14.57
2019-05-23T07:26:01.091Z,14.37
2019-05-23T07:28:31.032Z,13.93
2019-05-23T07:31:01.203Z,14.07
2019-05-23T07:33:31.011Z,14.10
2019-05-23T07:36:00.799Z,13.87
2019-05-23T07:38:30.593Z,13.77
2019-05-23T07:41:00.588Z,13.90
2019-05-23T07:43:30.925Z,13.93
2019-05-23T07:46:01.849Z,14.60
2019-05-23T07:48:33.267Z,14.10
2019-05-23T07:51:03.089Z,13.53
2019-05-23T07:53:34.600Z,13.93
2019-05-23T07:56:06.477Z,13.67
2019-05-23T07:58:36.336Z,14.23
2019-05-23T08:01:10.775Z,13.00
2019-05-23T08:03:41.237Z,13.43
2019-05-23T08:06:11.874Z,14.70
2019-05-23T08:08:42.272Z,13.13
2019-05-23T08:11:12.138Z,14.43
2019-05-23T08:13:42.471Z,13.53
2019-05-23T08:16:12.921Z,14.73
2019-05-23T08:18:42.880Z,13.63
2019-05-23T08:21:12.837Z,13.70
2019-05-23T08:23:42.729Z,14.10
2019-05-23T08:26:12.972Z,13.97
2019-05-23T08:29:11.467Z,12.93
2019-05-23T08:31:15.051Z,13.80
2019-05-23T08:33:44.873Z,13.30
2019-05-23T08:36:15.669Z,14.00
2019-05-23T08:38:45.474Z,14.27
2019-05-23T08:41:15.338Z,13.53
2019-05-23T08:43:45.226Z,13.80
2019-05-23T08:46:16.874Z,13.90
2019-05-23T08:48:46.871Z,13.30
2019-05-23T08:51:17.581Z,13.37
2019-05-23T08:53:47.456Z,13.10
2019-05-23T08:56:19.756Z,13.67
2019-05-23T08:58:49.683Z,13.13
2019-05-23T09:01:19.753Z,13.03
2019-05-23T09:03:49.831Z,14.80
2019-05-23T09:06:20.065Z,14.78
2019-05-23T09:08:51.738Z,14.40
2019-05-23T09:11:21.897Z,14.70
2019-05-23T09:13:52.455Z,14.58
2019-05-23T09:16:22.308Z,13.72
2019-05-23T09:18:52.189Z,12.63
2019-05-23T09:21:22.223Z,13.10
2019-05-23T09:23:52.101Z,11.48
2019-05-23T09:26:23.433Z,12.68
2019-05-23T09:28:53.269Z,12.98
2019-05-23T09:31:23.909Z,13.83
2019-05-23T09:33:53.792Z,13.50
2019-05-23T09:36:23.581Z,13.50
2019-05-23T09:38:53.384Z,13.98
2019-05-23T09:41:23.184Z,12.05
2019-05-23T09:43:53.056Z,12.53
2019-05-23T09:46:22.934Z,12.33
2019-05-23T09:48:53.286Z,11.78
2019-05-23T09:51:23.226Z,11.93
2019-05-23T09:53:53.031Z,11.63
2019-05-23T09:56:22.824Z,11.50
2019-05-23T09:58:52.718Z,11.28
2019-05-23T10:01:23.728Z,10.85
2019-05-23T10:03:53.785Z,11.22
2019-05-23T10:06:23.586Z,11.63
2019-05-23T10:08:54.879Z,10.82
2019-05-23T10:11:26.445Z,9.88
2019-05-23T10:13:58.800Z,10.75
2019-05-23T10:16:29.228Z,10.60
2019-05-23T10:18:59.608Z,10.43
2019-05-23T10:21:32.195Z,9.50
2019-05-23T10:24:05.316Z,10.48
2019-05-23T10:26:35.116Z,9.33
2019-05-23T10:29:05.186Z,8.93
2019-05-23T10:31:35.069Z,9.40
2019-05-23T10:34:04.920Z,8.55
2019-05-23T10:36:34.751Z,7.95
2019-05-23T10:39:07.590Z,7.72
2019-05-23T10:41:37.400Z,8.63
2019-05-23T10:44:07.197Z,6.95
2019-05-23T10:46:37.124Z,6.75
2019-05-23T10:49:06.999Z,7.20
2019-05-23T10:51:36.800Z,6.67
2019-05-23T10:54:07.102Z,7.20
2019-05-23T10:56:37.421Z,7.22
2019-05-23T10:59:07.359Z,5.87
2019-05-23T11:01:37.409Z,7.30
2019-05-23T11:04:07.260Z,6.28
2019-05-23T11:06:37.053Z,7.40
2019-05-23T11:09:09.282Z,6.78
2019-05-23T11:11:39.633Z,6.17
2019-05-23T11:14:09.856Z,6.92
2019-05-23T11:16:40.511Z,6.55
2019-05-23T11:19:11.076Z,6.17
2019-05-23T11:21:40.875Z,6.62
2019-05-23T11:24:10.828Z,5.78
2019-05-23T11:26:40.767Z,6.15
2019-05-23T11:29:10.569Z,5.80
2019-05-23T11:31:40.441Z,5.37
2019-05-23T11:34:10.393Z,5.28
2019-05-23T11:36:40.163Z,4.50
2019-05-23T11:39:10.746Z,3.75
2019-05-23T11:41:40.691Z,4.62
2019-05-23T11:44:10.554Z,4.67
2019-05-23T11:46:40.808Z,3.80
2019-05-23T11:49:10.641Z,3.90
2019-05-23T11:51:40.567Z,4.37
2019-05-23T11:54:10.888Z,4.58
2019-05-23T11:56:41.540Z,3.80
2019-05-23T11:59:11.404Z,3.80
2019-05-23T12:01:57.893Z,3.52
2019-05-23T12:04:28.237Z,3.92
2019-05-23T12:06:59.911Z,4.20
2019-05-23T12:09:29.778Z,4.90
2019-05-23T12:11:59.564Z,5.03
2019-05-23T12:14:30.491Z,5.37
2019-05-23T12:17:00.544Z,5.20
2019-05-23T12:19:30.346Z,3.90
2019-05-23T12:22:00.301Z,4.50
2019-05-23T12:24:34.802Z,4.60
2019-05-23T12:27:01.775Z,4.15
2019-05-23T12:29:31.565Z,4.15
2019-05-23T12:32:01.413Z,3.95
2019-05-23T12:34:31.252Z,4.45
2019-05-23T12:37:18.630Z,3.58
2019-05-23T12:39:32.656Z,3.85
2019-05-23T12:42:02.473Z,3.72
2019-05-23T12:44:32.280Z,3.35
2019-05-23T12:47:03.271Z,2.92
2019-05-23T12:49:34.711Z,2.80
2019-05-23T12:52:05.800Z,3.27
2019-05-23T12:54:35.673Z,2.80
2019-05-23T12:57:05.658Z,3.40
2019-05-23T12:59:36.820Z,2.77
2019-05-23T13:02:08.311Z,3.12
2019-05-23T13:04:38.179Z,2.70
2019-05-23T13:07:08.203Z,2.77
2019-05-23T13:09:38.664Z,2.83
2019-05-23T13:12:08.455Z,3.22
2019-05-23T13:14:38.603Z,2.65
2019-05-23T13:17:08.383Z,2.30
2019-05-23T13:19:38.187Z,2.52
2019-05-23T13:22:09.297Z,2.62
2019-05-23T13:24:51.903Z,2.62
2019-05-23T13:27:10.719Z,2.70
2019-05-23T13:29:40.597Z,2.87
2019-05-23T13:32:10.449Z,2.35
2019-05-23T13:34:40.303Z,2.70
2019-05-23T13:37:16.631Z,2.42
2019-05-23T13:39:43.600Z,2.98
2019-05-23T13:42:13.440Z,2.30
2019-05-23T13:44:43.383Z,2.80
2019-05-23T13:47:13.230Z,3.22
2019-05-23T13:49:43.310Z,3.08
2019-05-23T13:52:13.259Z,2.85
2019-05-23T13:54:44.229Z,2.75
2019-05-23T13:57:14.896Z,2.72
2019-05-23T13:59:44.856Z,2.75
2019-05-23T14:02:15.786Z,2.90
2019-05-23T14:04:45.640Z,3.05
2019-05-23T14:07:16.395Z,3.95
2019-05-23T14:09:46.258Z,2.98
2019-05-23T14:12:21.633Z,3.02
2019-05-23T14:14:48.694Z,2.22
2019-05-23T14:17:20.137Z,2.50
2019-05-23T14:19:50.191Z,2.52
2019-05-23T14:22:20.516Z,2.90
2019-05-23T14:24:52.270Z,2.55
2019-05-23T14:27:23.801Z,2.58
2019-05-23T14:29:53.656Z,2.40
2019-05-23T14:32:34.360Z,2.47
2019-05-23T14:35:06.108Z,2.05
2019-05-23T14:37:37.675Z,2.17
2019-05-23T14:40:09.312Z,1.90
2019-05-23T14:42:52.916Z,2.02
2019-05-23T14:45:41.526Z,2.75
2019-05-23T14:48:13.340Z,1.92
2019-05-23T14:51:00.346Z,2.33
2019-05-23T14:53:47.924Z,2.45
2019-05-23T14:56:18.544Z,2.33
2019-05-23T14:58:48.410Z,1.90
2019-05-23T15:01:18.323Z,2.20
2019-05-23T15:03:48.177Z,2.42
2019-05-23T15:06:18.724Z,3.00
2019-05-23T15:08:51.538Z,1.98
2019-05-23T15:11:20.172Z,2.10
2019-05-23T15:13:50.038Z,1.72
2019-05-23T15:16:20.099Z,2.17
2019-05-23T15:18:49.964Z,1.75
2019-05-23T15:21:19.841Z,1.75
2019-05-23T15:23:49.692Z,1.70
2019-05-23T15:26:23.551Z,1.90
2019-05-23T15:28:51.134Z,2.42
2019-05-23T15:31:23.548Z,2.20
2019-05-23T15:33:53.403Z,1.82
2019-05-23T15:36:23.621Z,2.30
2019-05-23T15:39:08.260Z,1.95
2019-05-23T15:41:24.963Z,2.00
2019-05-23T15:43:55.212Z,2.15
2019-05-23T15:46:25.385Z,2.30
2019-05-23T15:48:55.164Z,2.62
2019-05-23T15:51:26.752Z,2.17
2019-05-23T15:54:04.192Z,2.35
2019-05-23T15:56:45.752Z,2.10
2019-05-23T15:59:20.615Z,2.47
2019-05-23T16:01:55.185Z,2.12
2019-05-23T16:04:25.623Z,1.70
2019-05-23T16:06:56.627Z,2.22
2019-05-23T16:09:30.267Z,2.00
2019-05-23T16:11:59.090Z,2.10
2019-05-23T16:14:29.190Z,1.67
2019-05-23T16:16:59.115Z,2.05
2019-05-23T16:19:28.968Z,1.70
2019-05-23T16:21:58.838Z,1.57
2019-05-23T16:24:28.676Z,1.55
2019-05-23T16:26:58.629Z,1.75
2019-05-23T16:29:28.487Z,1.98
2019-05-23T16:31:58.489Z,2.10
2019-05-23T16:34:28.907Z,2.10
2019-05-23T16:36:58.687Z,2.58
2019-05-23T16:39:45.441Z,3.00
2019-05-23T16:42:00.765Z,1.87
2019-05-23T16:44:30.637Z,2.40
2019-05-23T16:47:00.611Z,2.30
2019-05-23T16:49:30.427Z,2.15
2019-05-23T16:52:00.196Z,2.95
2019-05-23T16:54:31.708Z,2.27
2019-05-23T16:57:03.213Z,2.08
2019-05-23T16:59:34.921Z,1.72
2019-05-23T17:02:09.807Z,1.92
2019-05-23T17:04:41.401Z,1.70
2019-05-23T17:07:13.569Z,2.08
2019-05-23T17:09:45.193Z,2.25
2019-05-23T17:12:22.200Z,2.30
2019-05-23T17:15:08.619Z,1.77
2019-05-23T17:18:02.982Z,1.90
2019-05-23T17:20:47.687Z,1.50
2019-05-23T17:23:37.792Z,1.72
2019-05-23T17:26:11.973Z,1.62
2019-05-23T17:28:43.402Z,1.57
2019-05-23T17:31:14.899Z,1.50
2019-05-23T17:33:46.434Z,1.47
2019-05-23T17:36:16.763Z,1.45
2019-05-23T17:38:46.549Z,1.30
2019-05-23T17:41:16.887Z,1.85
2019-05-23T17:43:46.677Z,1.80
2019-05-23T17:46:16.523Z,1.50
2019-05-23T17:48:46.307Z,1.80
2019-05-23T17:51:16.225Z,1.85
2019-05-23T17:53:46.128Z,1.45
2019-05-23T17:56:15.962Z,1.77
2019-05-23T17:58:45.916Z,1.80
2019-05-23T18:01:16.435Z,1.62
2019-05-23T18:03:46.259Z,1.62
2019-05-23T18:06:16.461Z,1.60
2019-05-23T18:08:46.414Z,1.50
2019-05-23T18:11:16.336Z,1.72
2019-05-23T18:13:46.150Z,1.50
2019-05-23T18:16:18.062Z,1.55
2019-05-23T18:18:48.199Z,2.15
2019-05-23T18:21:19.476Z,2.25
2019-05-23T18:23:51.882Z,2.72
2019-05-23T18:26:21.698Z,2.17
2019-05-23T18:28:52.032Z,3.42
2019-05-23T18:31:23.456Z,2.98
2019-05-23T18:33:53.346Z,1.72
2019-05-23T18:36:23.250Z,2.37
2019-05-23T18:38:53.667Z,1.90
2019-05-23T18:41:24.398Z,1.90
2019-05-23T18:43:54.945Z,2.12
2019-05-23T18:46:29.378Z,1.92
2019-05-23T18:48:59.184Z,1.92
2019-05-23T18:51:29.770Z,1.82
2019-05-23T18:53:59.552Z,1.80
2019-05-23T18:56:29.505Z,1.72
2019-05-23T18:58:59.589Z,2.33
2019-05-23T19:01:29.712Z,2.08
2019-05-23T19:04:00.073Z,3.72
2019-05-23T19:06:30.262Z,2.30
2019-05-23T19:09:00.136Z,1.87
2019-05-23T19:11:30.293Z,2.40
2019-05-23T19:14:00.639Z,1.60
2019-05-23T19:16:31.531Z,2.65
2019-05-23T19:19:05.456Z,2.10
2019-05-23T19:21:40.004Z,2.65
2019-05-23T19:24:11.014Z,2.33
2019-05-23T19:26:41.341Z,2.15
2019-05-23T19:29:12.004Z,2.10
2019-05-23T19:31:42.604Z,2.15
2019-05-23T19:34:12.896Z,1.95
2019-05-23T19:36:42.899Z,2.17
2019-05-23T19:39:13.020Z,2.27
2019-05-23T19:41:43.029Z,2.98
2019-05-23T19:44:12.908Z,2.00
2019-05-23T19:46:44.611Z,4.22
2019-05-23T19:49:14.932Z,2.60
2019-05-23T19:51:45.192Z,3.62
2019-05-23T19:54:15.413Z,3.20
2019-05-23T19:56:45.264Z,2.55
2019-05-23T19:59:15.081Z,3.62
2019-05-23T20:01:46.520Z,6.45
2019-05-23T20:04:17.609Z,5.15
2019-05-23T20:06:47.730Z,8.35
2019-05-23T20:09:19.448Z,6.75
2019-05-23T20:11:54.162Z,9.78
2019-05-23T20:14:21.966Z,9.13
2019-05-23T20:16:51.912Z,6.37
2019-05-23T20:19:21.854Z,4.40
2019-05-23T20:21:51.715Z,4.80
2019-05-23T20:24:21.574Z,6.03
2019-05-23T20:26:51.439Z,4.53
2019-05-23T20:29:21.288Z,6.53
2019-05-23T20:31:52.263Z,6.40
2019-05-23T20:34:22.171Z,5.50
2019-05-23T20:36:52.037Z,5.22
2019-05-23T20:39:22.687Z,4.70
2019-05-23T20:41:53.049Z,3.27
2019-05-23T20:44:23.010Z,3.55
2019-05-23T20:46:52.826Z,3.45
2019-05-23T20:49:27.022Z,3.77
2019-05-23T20:51:55.489Z,2.75
2019-05-23T20:54:25.284Z,3.20
2019-05-23T20:56:55.083Z,2.70
2019-05-23T20:59:24.859Z,3.42
2019-05-23T21:01:54.657Z,3.00
2019-05-23T21:04:24.440Z,2.70
2019-05-23T21:06:54.243Z,2.58
2019-05-23T21:09:24.404Z,2.87
2019-05-23T21:11:54.195Z,2.90
2019-05-23T21:14:24.187Z,3.02
2019-05-23T21:16:53.983Z,3.02
2019-05-23T21:19:23.852Z,3.33
2019-05-23T21:21:53.815Z,3.77
2019-05-23T21:24:23.626Z,6.47
2019-05-23T21:26:53.442Z,4.65
2019-05-23T21:29:23.231Z,3.77
2019-05-23T21:31:53.036Z,3.52
2019-05-23T21:34:22.876Z,3.85
2019-05-23T21:36:52.685Z,4.17
2019-05-23T21:39:22.534Z,3.75
2019-05-23T21:41:52.336Z,4.07
2019-05-23T21:44:22.119Z,3.60
2019-05-23T21:46:52.039Z,4.65
2019-05-23T21:49:21.904Z,4.90
2019-05-23T21:51:52.111Z,3.17
2019-05-23T21:54:22.100Z,3.62
2019-05-23T21:56:51.886Z,3.90
2019-05-23T21:59:21.751Z,4.70
2019-05-23T22:01:58.981Z,4.77
2019-05-23T22:04:30.606Z,3.80
2019-05-23T22:07:01.052Z,3.98
2019-05-23T22:09:31.075Z,4.10
2019-05-23T22:12:01.204Z,4.37
2019-05-23T22:14:31.194Z,3.73
2019-05-23T22:17:01.065Z,4.30
2019-05-23T22:19:31.990Z,3.70
2019-05-23T22:22:01.783Z,4.07
2019-05-23T22:24:31.585Z,4.33
2019-05-23T22:27:01.751Z,4.47
2019-05-23T22:29:31.669Z,4.30
2019-05-23T22:32:02.771Z,4.80
2019-05-23T22:34:43.523Z,4.00
2019-05-23T22:37:17.911Z,4.23
2019-05-23T22:39:47.776Z,4.17
2019-05-23T22:42:18.830Z,4.00
2019-05-23T22:44:48.791Z,4.13
2019-05-23T22:47:18.812Z,3.73
2019-05-23T22:49:48.663Z,4.40
2019-05-23T22:52:18.464Z,4.13
2019-05-23T22:54:48.238Z,3.60
2019-05-23T22:57:18.108Z,3.63
2019-05-23T22:59:48.880Z,4.00
2019-05-23T23:02:19.116Z,3.87
2019-05-23T23:04:48.907Z,4.83
2019-05-23T23:07:18.976Z,4.03
2019-05-23T23:09:49.030Z,4.37
2019-05-23T23:12:18.907Z,4.27
2019-05-23T23:14:48.803Z,4.43
2019-05-23T23:17:20.038Z,4.57
2019-05-23T23:19:49.947Z,4.20
2019-05-23T23:22:19.759Z,4.10
2019-05-23T23:24:49.532Z,4.30
2019-05-23T23:27:19.327Z,4.07
2019-05-23T23:29:49.475Z,4.35
2019-05-23T23:32:19.308Z,4.53
2019-05-23T23:34:49.111Z,3.77
2019-05-23T23:37:18.936Z,4.37
2019-05-23T23:39:48.795Z,3.63
2019-05-23T23:42:18.639Z,4.07
2019-05-23T23:44:47.764Z,4.37
2019-05-23T23:47:35.105Z,5.00
2019-05-23T23:50:25.706Z,4.77
2019-05-23T23:53:13.887Z,4.53
2019-05-23T23:56:02.318Z,3.80
2019-05-23T23:58:31.408Z,4.40
